createdAt,value
2023-12-08T00:02:17.858Z,27.33
2023-12-08T00:04:44.934Z,29.50
2023-12-08T00:07:12.075Z,27.90
2023-12-08T00:09:38.913Z,29.47
2023-12-08T00:12:06.425Z,29.87
2023-12-08T00:14:33.357Z,27.90
2023-12-08T00:17:00.105Z,28.87
2023-12-08T00:19:26.967Z,29.43
2023-12-08T00:21:54.579Z,29.00
2023-12-08T00:24:21.384Z,29.43
2023-12-08T00:26:48.177Z,29.20
2023-12-08T00:29:20.453Z,29.27
2023-12-08T00:31:48.184Z,29.90
2023-12-08T00:34:15.414Z,30.93
2023-12-08T00:36:43.016Z,28.83
2023-12-08T00:39:10.123Z,31.00
2023-12-08T00:41:37.072Z,30.73
2023-12-08T00:44:05.020Z,28.93
2023-12-08T00:46:32.378Z,29.57
2023-12-08T00:48:59.351Z,31.60
2023-12-08T00:51:26.648Z,30.03
2023-12-08T00:53:53.585Z,30.47
2023-12-08T00:56:20.837Z,30.13
2023-12-08T00:58:47.999Z,30.13
2023-12-08T01:01:17.196Z,31.47
2023-12-08T01:03:44.264Z,30.17
2023-12-08T01:06:11.421Z,29.17
2023-12-08T01:08:38.287Z,30.87
2023-12-08T01:11:07.363Z,30.53
2023-12-08T01:13:34.345Z,28.60
2023-12-08T01:16:01.229Z,30.07
2023-12-08T01:18:28.181Z,30.00
2023-12-08T01:20:55.475Z,30.60
2023-12-08T01:23:22.281Z,29.80
2023-12-08T01:25:49.594Z,29.03
2023-12-08T01:28:17.109Z,29.50
2023-12-08T01:30:44.223Z,30.30
2023-12-08T01:33:11.059Z,32.83
2023-12-08T01:35:38.619Z,29.57
2023-12-08T01:38:05.878Z,29.40
2023-12-08T01:40:32.951Z,29.97
2023-12-08T01:42:59.909Z,30.70
2023-12-08T01:45:26.819Z,32.07
2023-12-08T01:47:54.087Z,30.07
2023-12-08T01:50:21.391Z,30.70
2023-12-08T01:52:50.220Z,31.23
2023-12-08T01:55:17.249Z,31.60
2023-12-08T01:57:44.461Z,32.63
2023-12-08T02:00:11.977Z,32.20
2023-12-08T02:02:39.270Z,30.77
2023-12-08T02:05:08.127Z,31.27
2023-12-08T02:07:35.237Z,30.37
2023-12-08T02:10:02.606Z,32.63
2023-12-08T02:12:29.426Z,33.10
2023-12-08T02:14:56.313Z,30.73
2023-12-08T02:17:27.902Z,30.13
2023-12-08T02:19:55.881Z,31.10
2023-12-08T02:22:25.947Z,32.07
2023-12-08T02:24:53.068Z,29.73
2023-12-08T02:27:20.220Z,28.93
2023-12-08T02:29:47.232Z,30.67
2023-12-08T02:32:19.786Z,29.20
2023-12-08T02:34:48.714Z,29.47
2023-12-08T02:37:17.563Z,27.33
2023-12-08T02:39:45.562Z,28.13
2023-12-08T02:42:12.819Z,28.77
2023-12-08T02:44:39.705Z,28.00
2023-12-08T02:47:07.750Z,28.63
2023-12-08T02:49:35.667Z,30.97
2023-12-08T02:52:02.752Z,31.00
2023-12-08T02:54:29.539Z,28.53
2023-12-08T02:56:56.363Z,28.70
2023-12-08T02:59:23.176Z,27.13
2023-12-08T03:01:50.038Z,27.73
2023-12-08T03:04:17.079Z,28.67
2023-12-08T03:06:44.013Z,29.07
2023-12-08T03:09:12.060Z,30.93
2023-12-08T03:11:38.885Z,27.50
2023-12-08T03:14:05.774Z,28.53
2023-12-08T03:16:33.003Z,27.57
2023-12-08T03:19:00.271Z,28.73
2023-12-08T03:21:28.350Z,29.87
2023-12-08T03:23:55.513Z,27.53
2023-12-08T03:26:22.514Z,29.97
2023-12-08T03:28:49.394Z,29.23
2023-12-08T03:31:24.408Z,29.33
2023-12-08T03:33:51.314Z,29.80
2023-12-08T03:36:18.245Z,30.40
2023-12-08T03:38:45.432Z,29.13
2023-12-08T03:41:13.166Z,30.07
2023-12-08T03:43:40.690Z,28.50
2023-12-08T03:46:08.852Z,28.23
2023-12-08T03:48:36.618Z,28.17
2023-12-08T03:51:04.865Z,31.90
2023-12-08T03:53:32.735Z,30.47
2023-12-08T03:55:59.812Z,30.03
2023-12-08T03:58:28.309Z,29.13
2023-12-08T04:00:55.414Z,27.97
2023-12-08T04:03:22.659Z,29.53
2023-12-08T04:05:52.448Z,29.33
2023-12-08T04:08:19.350Z,29.27
2023-12-08T04:10:46.951Z,29.83
2023-12-08T04:13:13.870Z,29.43
2023-12-08T04:15:41.111Z,29.03
2023-12-08T04:18:08.224Z,27.40
2023-12-08T04:20:35.402Z,27.50
2023-12-08T04:23:06.307Z,27.30
2023-12-08T04:25:33.320Z,28.50
2023-12-08T04:28:00.396Z,28.50
2023-12-08T04:30:27.278Z,29.03
2023-12-08T04:32:54.240Z,29.90
2023-12-08T04:35:21.289Z,30.13
2023-12-08T04:37:48.086Z,28.10
2023-12-08T04:40:15.129Z,31.00
2023-12-08T04:42:42.667Z,28.63
2023-12-08T04:45:11.222Z,29.17
2023-12-08T04:47:38.766Z,27.43
2023-12-08T04:50:06.200Z,27.10
2023-12-08T04:52:33.666Z,26.93
2023-12-08T04:55:02.835Z,27.53
2023-12-08T04:57:30.342Z,27.47
2023-12-08T04:59:58.047Z,26.90
2023-12-08T05:02:24.880Z,28.03
2023-12-08T05:04:51.783Z,29.07
2023-12-08T05:07:18.619Z,27.77
2023-12-08T05:09:45.356Z,28.60
2023-12-08T05:12:12.311Z,28.43
2023-12-08T05:14:39.144Z,29.60
2023-12-08T05:17:06.129Z,29.43
2023-12-08T05:19:33.256Z,28.47
2023-12-08T05:22:00.264Z,27.37
2023-12-08T05:24:27.110Z,29.23
2023-12-08T05:26:53.975Z,27.97
2023-12-08T05:29:21.135Z,27.53
2023-12-08T05:31:48.101Z,28.40
2023-12-08T05:34:15.260Z,26.93
2023-12-08T05:36:42.227Z,26.00
2023-12-08T05:39:09.016Z,28.80
2023-12-08T05:41:38.095Z,26.50
2023-12-08T05:44:05.270Z,26.17
2023-12-08T05:46:32.484Z,26.00
2023-12-08T05:48:59.357Z,28.73
2023-12-08T05:51:27.637Z,27.50
2023-12-08T05:53:54.469Z,26.13
2023-12-08T05:56:21.406Z,24.57
2023-12-08T05:58:48.450Z,28.07
2023-12-08T06:01:15.755Z,25.77
2023-12-08T06:03:42.883Z,24.43
2023-12-08T06:06:09.800Z,27.57
2023-12-08T06:08:36.925Z,26.23
2023-12-08T06:11:04.600Z,26.60
2023-12-08T06:13:31.515Z,26.80
2023-12-08T06:15:58.391Z,25.20
2023-12-08T06:18:26.835Z,27.13
2023-12-08T06:20:54.104Z,27.63
2023-12-08T06:23:20.888Z,26.07
2023-12-08T06:25:47.947Z,26.17
2023-12-08T06:28:14.705Z,24.77
2023-12-08T06:30:41.714Z,25.93
2023-12-08T06:33:08.812Z,26.60
2023-12-08T06:35:37.705Z,27.20
2023-12-08T06:38:05.811Z,28.03
2023-12-08T06:40:32.837Z,27.40
2023-12-08T06:42:59.836Z,27.90
2023-12-08T06:45:27.061Z,28.97
2023-12-08T06:47:54.878Z,27.03
2023-12-08T06:50:22.851Z,27.27
2023-12-08T06:52:52.524Z,26.50
2023-12-08T06:55:19.925Z,27.30
2023-12-08T06:57:46.853Z,27.10
2023-12-08T07:00:14.600Z,26.93
2023-12-08T07:02:41.858Z,28.37
2023-12-08T07:05:09.275Z,26.80
2023-12-08T07:07:36.693Z,27.70
2023-12-08T07:10:03.929Z,28.63
2023-12-08T07:12:31.532Z,28.50
2023-12-08T07:14:58.439Z,27.90
2023-12-08T07:17:26.130Z,27.10
2023-12-08T07:19:53.468Z,26.90
2023-12-08T07:22:20.431Z,28.57
2023-12-08T07:24:47.241Z,27.03
2023-12-08T07:27:14.109Z,26.33
2023-12-08T07:29:40.922Z,27.07
2023-12-08T07:32:08.418Z,25.60
2023-12-08T07:34:35.260Z,28.27
2023-12-08T07:37:02.150Z,27.10
2023-12-08T07:39:28.946Z,27.33
2023-12-08T07:41:55.853Z,29.20
2023-12-08T07:44:22.804Z,26.73
2023-12-08T07:46:49.712Z,28.67
2023-12-08T07:49:16.717Z,27.13
2023-12-08T07:51:43.728Z,27.40
2023-12-08T07:54:11.792Z,28.23
2023-12-08T07:56:38.956Z,28.10
2023-12-08T07:59:06.025Z,26.83
2023-12-08T08:01:32.914Z,27.30
2023-12-08T08:03:59.819Z,29.03
2023-12-08T08:06:27.038Z,27.07
2023-12-08T08:08:54.216Z,28.90
2023-12-08T08:11:21.275Z,30.63
2023-12-08T08:13:49.104Z,29.70
2023-12-08T08:16:16.097Z,27.53
2023-12-08T08:18:43.031Z,26.97
2023-12-08T08:21:10.164Z,29.73
2023-12-08T08:23:37.310Z,28.17
2023-12-08T08:26:04.381Z,29.20
2023-12-08T08:28:31.645Z,29.23
2023-12-08T08:30:58.707Z,32.57
2023-12-08T08:33:25.972Z,27.17
2023-12-08T08:35:53.040Z,30.70
2023-12-08T08:38:19.885Z,32.27
2023-12-08T08:40:47.263Z,29.90
2023-12-08T08:43:14.224Z,30.27
2023-12-08T08:45:41.016Z,30.60
2023-12-08T08:48:08.306Z,28.67
2023-12-08T08:50:43.507Z,32.20
2023-12-08T08:53:15.960Z,28.53
2023-12-08T08:55:43.221Z,30.30
2023-12-08T08:58:10.105Z,27.93
2023-12-08T09:00:37.321Z,28.20
2023-12-08T09:03:04.628Z,28.57
2023-12-08T09:05:34.128Z,29.20
2023-12-08T09:08:01.427Z,30.83
2023-12-08T09:10:28.187Z,30.37
2023-12-08T09:12:55.072Z,28.27
2023-12-08T09:15:21.952Z,30.30
2023-12-08T09:17:49.396Z,26.63
2023-12-08T09:20:16.390Z,29.60
2023-12-08T09:22:43.531Z,31.43
2023-12-08T09:25:10.415Z,29.87
2023-12-08T09:27:38.000Z,29.77
2023-12-08T09:30:05.793Z,29.37
2023-12-08T09:32:33.128Z,30.53
2023-12-08T09:35:00.286Z,30.73
2023-12-08T09:37:35.681Z,28.80
2023-12-08T09:40:06.480Z,28.60
2023-12-08T09:43:03.220Z,29.80
2023-12-08T09:45:30.351Z,30.47
2023-12-08T09:48:00.251Z,30.93
2023-12-08T09:50:28.035Z,29.30
2023-12-08T09:52:55.449Z,29.70
2023-12-08T09:55:22.773Z,28.27
2023-12-08T09:57:53.998Z,30.67
2023-12-08T10:00:21.608Z,28.50
2023-12-08T10:02:50.323Z,29.93
2023-12-08T10:05:18.298Z,28.57
2023-12-08T10:07:49.974Z,30.00
2023-12-08T10:10:16.869Z,27.60
2023-12-08T10:12:44.268Z,30.17
2023-12-08T10:15:12.914Z,28.03
2023-12-08T10:17:54.024Z,29.23
2023-12-08T10:20:22.533Z,29.77
2023-12-08T10:22:58.520Z,30.17
2023-12-08T10:25:30.455Z,30.80
2023-12-08T10:27:57.997Z,30.53
2023-12-08T10:30:27.250Z,32.20
2023-12-08T10:32:55.510Z,29.67
2023-12-08T10:35:23.225Z,31.17
2023-12-08T10:37:51.421Z,28.83
2023-12-08T10:40:19.683Z,30.70
2023-12-08T10:42:49.475Z,30.87
2023-12-08T10:45:17.754Z,31.40
2023-12-08T10:47:46.836Z,30.53
2023-12-08T10:50:14.859Z,28.43
2023-12-08T10:52:42.471Z,29.83
2023-12-08T10:55:10.840Z,30.23
2023-12-08T10:57:41.103Z,30.57
2023-12-08T11:00:18.921Z,30.13
2023-12-08T11:02:51.679Z,30.43
2023-12-08T11:05:38.582Z,32.40
2023-12-08T11:08:14.118Z,31.73
2023-12-08T11:10:44.916Z,32.03
2023-12-08T11:13:30.027Z,29.60
2023-12-08T11:16:18.688Z,29.73
2023-12-08T11:18:46.837Z,29.70
2023-12-08T11:21:14.205Z,29.97
2023-12-08T11:23:42.429Z,29.50
2023-12-08T11:26:26.640Z,29.53
2023-12-08T11:29:00.540Z,29.17
2023-12-08T11:31:45.574Z,30.13
2023-12-08T11:34:22.464Z,32.57
2023-12-08T11:36:51.340Z,31.97
2023-12-08T11:39:39.285Z,30.20
2023-12-08T11:42:11.108Z,30.50
2023-12-08T11:44:40.097Z,32.07
2023-12-08T11:47:08.127Z,30.93
2023-12-08T11:49:39.204Z,28.70
2023-12-08T11:52:33.621Z,31.53
2023-12-08T11:55:28.270Z,29.97
2023-12-08T11:58:03.286Z,32.47
2023-12-08T12:00:32.088Z,29.43
2023-12-08T12:03:00.396Z,30.07
2023-12-08T12:05:27.924Z,29.73
2023-12-08T12:07:56.358Z,28.47
2023-12-08T12:10:27.139Z,28.57
2023-12-08T12:13:04.257Z,29.13
2023-12-08T12:15:34.633Z,28.17
2023-12-08T12:18:02.551Z,28.27
2023-12-08T12:20:30.167Z,29.00
2023-12-08T12:22:57.680Z,27.77
2023-12-08T12:25:26.262Z,30.73
2023-12-08T12:27:55.483Z,28.30
2023-12-08T12:30:23.841Z,28.40
2023-12-08T12:32:51.739Z,28.73
2023-12-08T12:35:19.047Z,29.17
2023-12-08T12:37:46.714Z,32.17
2023-12-08T12:40:13.666Z,31.80
2023-12-08T12:42:47.872Z,30.97
2023-12-08T12:45:31.869Z,30.37
2023-12-08T12:48:07.615Z,29.90
2023-12-08T12:50:53.436Z,32.67
2023-12-08T12:53:20.472Z,29.80
2023-12-08T12:55:48.037Z,31.90
2023-12-08T12:58:21.977Z,27.80
2023-12-08T13:00:49.615Z,26.30
2023-12-08T13:03:19.892Z,27.10
2023-12-08T13:05:55.866Z,28.03
2023-12-08T13:08:23.869Z,28.40
2023-12-08T13:10:52.343Z,28.37
2023-12-08T13:13:19.526Z,27.60
2023-12-08T13:15:47.356Z,28.20
2023-12-08T13:18:14.811Z,29.33
2023-12-08T13:20:42.754Z,29.70
2023-12-08T13:23:09.951Z,30.63
2023-12-08T13:25:37.862Z,30.80
2023-12-08T13:28:04.942Z,29.80
2023-12-08T13:30:31.826Z,28.93
2023-12-08T13:32:59.594Z,29.03
2023-12-08T13:35:27.534Z,29.13
2023-12-08T13:37:54.347Z,29.47
2023-12-08T13:40:26.613Z,27.87
2023-12-08T13:42:53.480Z,26.63
2023-12-08T13:45:20.637Z,24.83
2023-12-08T13:47:47.583Z,25.93
2023-12-08T13:50:14.376Z,25.13
2023-12-08T13:52:41.158Z,24.70
2023-12-08T13:55:08.437Z,24.17
2023-12-08T13:57:35.174Z,27.37
2023-12-08T14:00:02.110Z,24.33
2023-12-08T14:02:29.012Z,25.20
2023-12-08T14:04:55.826Z,26.70
2023-12-08T14:07:22.789Z,24.47
2023-12-08T14:09:49.557Z,23.30
2023-12-08T14:12:16.440Z,24.10
2023-12-08T14:14:43.252Z,23.40
2023-12-08T14:17:10.747Z,22.83
2023-12-08T14:19:37.567Z,24.37
2023-12-08T14:22:04.547Z,26.67
2023-12-08T14:24:31.363Z,24.17
2023-12-08T14:26:58.133Z,26.00
2023-12-08T14:29:24.952Z,25.63
2023-12-08T14:31:51.782Z,24.00
2023-12-08T14:34:18.953Z,23.37
2023-12-08T14:36:47.218Z,25.13
2023-12-08T14:39:14.500Z,24.33
2023-12-08T14:41:41.497Z,26.53
2023-12-08T14:44:08.987Z,22.97
2023-12-08T14:46:38.540Z,24.23
2023-12-08T14:49:06.167Z,23.13
2023-12-08T14:51:33.232Z,23.20
2023-12-08T14:54:00.105Z,22.10
2023-12-08T14:56:28.368Z,24.70
2023-12-08T14:58:55.263Z,23.43
2023-12-08T15:01:22.568Z,22.30
2023-12-08T15:03:49.646Z,24.57
2023-12-08T15:06:17.156Z,23.83
2023-12-08T15:08:44.741Z,23.83
2023-12-08T15:11:11.861Z,27.97
2023-12-08T15:13:38.887Z,25.17
2023-12-08T15:16:06.449Z,25.37
2023-12-08T15:18:33.886Z,27.90
2023-12-08T15:21:01.333Z,25.07
2023-12-08T15:23:34.786Z,25.67
2023-12-08T15:26:01.790Z,28.10
2023-12-08T15:28:28.886Z,33.27
2023-12-08T15:30:58.661Z,26.60
2023-12-08T15:33:25.556Z,26.23
2023-12-08T15:35:52.517Z,26.07
2023-12-08T15:38:19.998Z,34.53
2023-12-08T15:40:46.929Z,31.17
2023-12-08T15:43:14.006Z,30.87
2023-12-08T15:45:41.171Z,30.80
2023-12-08T15:48:09.148Z,26.93
2023-12-08T15:50:36.120Z,34.50
2023-12-08T15:53:02.887Z,24.40
2023-12-08T15:55:29.669Z,23.97
2023-12-08T15:57:56.682Z,24.73
2023-12-08T16:00:23.753Z,23.77
2023-12-08T16:02:50.701Z,22.67
2023-12-08T16:05:17.849Z,22.33
2023-12-08T16:07:44.611Z,22.07
2023-12-08T16:10:11.850Z,22.83
2023-12-08T16:12:38.964Z,21.57
2023-12-08T16:15:12.463Z,25.40
2023-12-08T16:17:39.491Z,25.13
2023-12-08T16:20:07.024Z,23.27
2023-12-08T16:22:33.792Z,21.83
2023-12-08T16:25:00.634Z,24.17
2023-12-08T16:27:28.120Z,24.90
2023-12-08T16:29:55.642Z,24.83
2023-12-08T16:32:22.404Z,24.93
2023-12-08T16:34:49.289Z,24.80
2023-12-08T16:37:16.427Z,23.30
2023-12-08T16:39:43.696Z,23.53
2023-12-08T16:42:10.571Z,23.03
2023-12-08T16:44:37.671Z,27.23
2023-12-08T16:47:04.949Z,23.73
2023-12-08T16:49:32.373Z,23.80
2023-12-08T16:51:59.433Z,24.07
2023-12-08T16:54:26.333Z,25.53
2023-12-08T16:56:54.658Z,24.63
2023-12-08T16:59:21.590Z,23.77
2023-12-08T17:01:48.366Z,21.50
2023-12-08T17:04:15.252Z,21.67
2023-12-08T17:06:42.350Z,23.83
2023-12-08T17:09:09.233Z,21.43
2023-12-08T17:11:36.157Z,21.23
2023-12-08T17:14:02.938Z,21.03
2023-12-08T17:16:29.721Z,19.77
2023-12-08T17:18:56.895Z,22.80
2023-12-08T17:21:24.163Z,21.27
2023-12-08T17:23:51.228Z,21.17
2023-12-08T17:26:22.704Z,24.50
2023-12-08T17:28:56.286Z,25.63
2023-12-08T17:31:23.873Z,23.77
2023-12-08T17:33:51.358Z,19.10
2023-12-08T17:36:18.642Z,19.60
2023-12-08T17:38:45.737Z,19.87
2023-12-08T17:41:12.635Z,21.17
2023-12-08T17:43:39.409Z,21.23
2023-12-08T17:46:08.582Z,23.27
2023-12-08T17:48:36.966Z,21.63
2023-12-08T17:51:04.059Z,20.13
2023-12-08T17:53:31.159Z,19.63
2023-12-08T17:55:58.180Z,20.20
2023-12-08T17:58:24.939Z,20.80
2023-12-08T18:00:51.989Z,19.33
2023-12-08T18:03:19.619Z,20.37
2023-12-08T18:05:47.315Z,22.10
2023-12-08T18:08:15.973Z,22.40
2023-12-08T18:10:42.972Z,21.47
2023-12-08T18:13:09.813Z,21.23
2023-12-08T18:15:36.968Z,20.07
2023-12-08T18:18:05.089Z,21.03
2023-12-08T18:20:32.270Z,20.63
2023-12-08T18:22:59.677Z,21.47
2023-12-08T18:25:27.277Z,20.97
2023-12-08T18:28:07.693Z,20.77
2023-12-08T18:30:40.891Z,24.03
2023-12-08T18:33:08.061Z,20.90
2023-12-08T18:35:35.747Z,20.67
2023-12-08T18:38:02.565Z,21.20
2023-12-08T18:40:31.449Z,21.47
2023-12-08T18:42:58.297Z,22.77
2023-12-08T18:45:25.234Z,26.83
2023-12-08T18:47:52.493Z,24.53
2023-12-08T18:50:19.308Z,23.90
2023-12-08T18:52:46.584Z,25.30
2023-12-08T18:55:14.547Z,23.57
2023-12-08T18:57:41.506Z,27.53
2023-12-08T19:00:10.036Z,25.00
2023-12-08T19:02:37.511Z,25.70
2023-12-08T19:05:05.444Z,26.00
2023-12-08T19:07:32.397Z,25.77
2023-12-08T19:09:59.489Z,24.53
2023-12-08T19:12:26.716Z,26.07
2023-12-08T19:14:54.552Z,25.60
2023-12-08T19:17:21.441Z,24.07
2023-12-08T19:19:48.600Z,26.63
2023-12-08T19:22:15.512Z,31.23
2023-12-08T19:24:44.473Z,27.93
2023-12-08T19:27:11.341Z,26.53
2023-12-08T19:29:41.967Z,28.60
2023-12-08T19:32:08.899Z,24.50
2023-12-08T19:34:35.967Z,24.53
2023-12-08T19:37:03.063Z,24.00
2023-12-08T19:39:29.900Z,22.63
2023-12-08T19:41:56.883Z,27.07
2023-12-08T19:44:23.956Z,24.97
2023-12-08T19:46:50.928Z,23.60
2023-12-08T19:49:18.240Z,25.03
2023-12-08T19:51:45.490Z,21.80
2023-12-08T19:54:12.717Z,23.27
2023-12-08T19:56:39.563Z,24.17
2023-12-08T19:59:06.543Z,23.83
2023-12-08T20:01:33.580Z,25.37
2023-12-08T20:04:00.739Z,24.73
2023-12-08T20:06:27.922Z,27.57
2023-12-08T20:08:54.926Z,26.87
2023-12-08T20:11:22.008Z,25.87
2023-12-08T20:13:49.538Z,25.73
2023-12-08T20:16:17.074Z,26.00
2023-12-08T20:18:44.202Z,25.50
2023-12-08T20:21:11.251Z,25.83
2023-12-08T20:23:38.098Z,26.57
2023-12-08T20:26:05.467Z,26.63
2023-12-08T20:28:33.680Z,27.67
2023-12-08T20:31:01.668Z,25.93
2023-12-08T20:33:28.638Z,28.03
2023-12-08T20:35:57.516Z,27.27
2023-12-08T20:38:25.522Z,28.07
2023-12-08T20:40:52.445Z,26.90
2023-12-08T20:43:23.464Z,26.10
2023-12-08T20:45:51.247Z,26.37
2023-12-08T20:48:19.898Z,26.07
2023-12-08T20:50:47.106Z,25.87
2023-12-08T20:53:14.880Z,27.13
2023-12-08T20:55:41.648Z,28.60
2023-12-08T20:58:08.419Z,27.87
2023-12-08T21:00:35.348Z,26.97
2023-12-08T21:03:02.162Z,26.90
2023-12-08T21:05:28.952Z,24.80
2023-12-08T21:07:55.835Z,26.07
2023-12-08T21:10:22.637Z,24.33
2023-12-08T21:12:49.408Z,21.90
2023-12-08T21:15:18.165Z,21.17
2023-12-08T21:17:45.483Z,20.40
2023-12-08T21:20:12.359Z,18.23
2023-12-08T21:22:41.248Z,21.43
2023-12-08T21:25:12.565Z,18.67
2023-12-08T21:27:40.566Z,21.37
2023-12-08T21:30:09.629Z,21.30
2023-12-08T21:32:37.714Z,21.30
2023-12-08T21:35:05.094Z,22.40
2023-12-08T21:37:32.026Z,22.07
2023-12-08T21:39:58.808Z,21.23
2023-12-08T21:42:25.844Z,22.20
2023-12-08T21:44:52.941Z,22.33
2023-12-08T21:47:19.753Z,24.40
2023-12-08T21:49:46.595Z,22.47
2023-12-08T21:52:13.420Z,23.17
2023-12-08T21:54:40.252Z,24.90
2023-12-08T21:57:07.192Z,22.73
2023-12-08T21:59:34.072Z,23.13
2023-12-08T22:02:01.085Z,22.83
2023-12-08T22:04:27.885Z,24.30
2023-12-08T22:06:54.892Z,22.10
2023-12-08T22:09:21.752Z,21.70
2023-12-08T22:11:48.659Z,22.27
2023-12-08T22:14:15.765Z,21.43
2023-12-08T22:16:42.546Z,19.80
2023-12-08T22:19:09.506Z,21.17
2023-12-08T22:21:37.818Z,20.83
2023-12-08T22:24:05.269Z,18.93
2023-12-08T22:26:32.087Z,19.87
2023-12-08T22:28:58.893Z,18.93
2023-12-08T22:31:25.650Z,19.20
2023-12-08T22:33:52.547Z,19.43
2023-12-08T22:36:19.481Z,19.87
2023-12-08T22:38:46.286Z,19.53
2023-12-08T22:41:13.090Z,21.07
2023-12-08T22:43:40.065Z,21.10
2023-12-08T22:46:06.898Z,20.13
2023-12-08T22:48:33.784Z,18.43
2023-12-08T22:51:07.266Z,18.90
2023-12-08T22:53:37.740Z,20.83
2023-12-08T22:56:04.858Z,21.20
2023-12-08T22:58:31.648Z,20.00
2023-12-08T23:00:58.619Z,20.37
2023-12-08T23:03:25.543Z,20.43
2023-12-08T23:05:52.532Z,20.20
2023-12-08T23:08:19.412Z,19.60
2023-12-08T23:10:46.692Z,19.37
2023-12-08T23:13:16.671Z,18.00
2023-12-08T23:15:44.088Z,21.10
2023-12-08T23:18:10.948Z,19.23
2023-12-08T23:20:37.967Z,18.50
2023-12-08T23:23:05.415Z,19.27
2023-12-08T23:25:32.224Z,18.90
2023-12-08T23:27:59.296Z,19.37
2023-12-08T23:30:26.266Z,19.70
2023-12-08T23:32:53.434Z,20.90
2023-12-08T23:35:20.533Z,18.77
2023-12-08T23:37:47.494Z,18.27
2023-12-08T23:40:14.288Z,18.13
2023-12-08T23:42:41.072Z,17.10
2023-12-08T23:45:08.437Z,19.20
2023-12-08T23:47:35.797Z,18.27
2023-12-08T23:50:03.581Z,18.47
2023-12-08T23:52:30.387Z,18.00
2023-12-08T23:54:57.168Z,19.07
2023-12-08T23:57:24.292Z,19.17
2023-12-08T23:59:51.207Z,20.77
